createdAt,value
2019-04-06T00:01:54.852Z,57.20
2019-04-06T00:04:22.833Z,57.17
2019-04-06T00:06:52.211Z,57.40
2019-04-06T00:09:20.234Z,55.67
2019-04-06T00:11:50.004Z,57.67
2019-04-06T00:14:18.014Z,58.00
2019-04-06T00:16:46.090Z,56.77
2019-04-06T00:19:14.142Z,57.17
2019-04-06T00:21:42.491Z,57.47
2019-04-06T00:24:10.535Z,56.10
2019-04-06T00:26:38.579Z,58.73
2019-04-06T00:29:06.619Z,56.73
2019-04-06T00:31:53.740Z,57.77
2019-04-06T00:34:22.324Z,59.37
2019-04-06T00:36:53.164Z,56.57
2019-04-06T00:39:21.251Z,57.17
2019-04-06T00:41:49.314Z,59.07
2019-04-06T00:44:17.793Z,56.17
2019-04-06T00:46:45.890Z,59.60
2019-04-06T00:49:13.911Z,58.03
2019-04-06T00:51:42.264Z,59.90
2019-04-06T00:54:10.367Z,59.57
2019-04-06T00:56:39.254Z,58.07
2019-04-06T00:59:07.296Z,57.97
2019-04-06T01:01:36.727Z,56.07
2019-04-06T01:04:04.805Z,55.13
2019-04-06T01:06:32.853Z,56.73
2019-04-06T01:09:02.563Z,57.37
2019-04-06T01:11:30.757Z,55.00
2019-04-06T01:13:58.884Z,60.37
2019-04-06T01:16:27.104Z,56.07
2019-04-06T01:18:55.236Z,55.47
2019-04-06T01:21:23.323Z,56.37
2019-04-06T01:23:51.523Z,53.13
2019-04-06T01:26:19.553Z,53.60
2019-04-06T01:28:47.606Z,52.27
2019-04-06T01:31:15.647Z,50.23
2019-04-06T01:33:43.746Z,50.50
2019-04-06T01:36:11.779Z,49.67
2019-04-06T01:38:39.890Z,51.30
2019-04-06T01:41:07.953Z,51.23
2019-04-06T01:43:35.986Z,51.13
2019-04-06T01:46:04.070Z,51.37
2019-04-06T01:48:32.105Z,51.70
2019-04-06T01:51:00.155Z,49.97
2019-04-06T01:53:28.164Z,51.67
2019-04-06T01:55:56.240Z,52.17
2019-04-06T01:58:24.334Z,53.23
2019-04-06T02:01:08.630Z,54.40
2019-04-06T02:03:36.681Z,55.87
2019-04-06T02:06:04.767Z,58.90
2019-04-06T02:08:32.803Z,56.70
2019-04-06T02:11:00.898Z,56.03
2019-04-06T02:13:28.897Z,57.20
2019-04-06T02:15:56.923Z,58.90
2019-04-06T02:18:27.190Z,59.03
2019-04-06T02:20:55.330Z,57.93
2019-04-06T02:23:23.389Z,58.00
2019-04-06T02:25:51.433Z,58.03
2019-04-06T02:28:19.491Z,55.27
2019-04-06T02:31:05.636Z,58.27
2019-04-06T02:33:51.058Z,57.83
2019-04-06T02:36:44.028Z,59.13
2019-04-06T02:39:31.082Z,57.60
2019-04-06T02:42:08.301Z,57.20
2019-04-06T02:44:36.445Z,56.73
2019-04-06T02:47:04.516Z,55.87
2019-04-06T02:49:32.552Z,56.43
2019-04-06T02:52:00.639Z,54.67
2019-04-06T02:54:28.660Z,56.03
2019-04-06T02:56:56.948Z,56.80
2019-04-06T02:59:25.046Z,53.80
2019-04-06T03:01:53.978Z,54.33
2019-04-06T03:04:21.989Z,55.10
2019-04-06T03:06:50.064Z,54.93
2019-04-06T03:09:18.129Z,56.17
2019-04-06T03:11:46.361Z,54.47
2019-04-06T03:14:14.375Z,54.67
2019-04-06T03:16:42.448Z,52.63
2019-04-06T03:19:10.471Z,52.70
2019-04-06T03:21:38.530Z,56.43
2019-04-06T03:24:06.575Z,52.50
2019-04-06T03:26:34.606Z,53.93
2019-04-06T03:29:02.679Z,52.83
2019-04-06T03:31:30.715Z,53.37
2019-04-06T03:33:59.078Z,54.03
2019-04-06T03:36:27.169Z,52.83
2019-04-06T03:38:55.370Z,53.00
2019-04-06T03:41:23.442Z,53.33
2019-04-06T03:43:51.517Z,52.17
2019-04-06T03:46:19.532Z,50.53
2019-04-06T03:48:47.548Z,51.33
2019-04-06T03:51:15.570Z,50.97
2019-04-06T03:53:43.571Z,50.77
2019-04-06T03:56:11.584Z,50.33
2019-04-06T03:58:39.659Z,52.10
2019-04-06T04:01:07.724Z,50.53
2019-04-06T04:03:36.131Z,52.10
2019-04-06T04:06:04.847Z,49.63
2019-04-06T04:08:33.446Z,49.17
2019-04-06T04:11:03.594Z,47.73
2019-04-06T04:13:31.663Z,48.93
2019-04-06T04:15:59.772Z,44.20
2019-04-06T04:18:27.820Z,48.43
2019-04-06T04:20:55.880Z,44.30
2019-04-06T04:23:24.212Z,42.87
2019-04-06T04:25:52.240Z,45.43
2019-04-06T04:28:20.210Z,44.70
2019-04-06T04:30:48.204Z,45.10
2019-04-06T04:33:16.417Z,44.57
2019-04-06T04:35:44.546Z,44.50
2019-04-06T04:38:12.550Z,44.90
2019-04-06T04:40:40.608Z,43.63
2019-04-06T04:43:08.618Z,44.63
2019-04-06T04:45:36.651Z,42.73
2019-04-06T04:48:04.646Z,46.67
2019-04-06T04:50:33.173Z,41.53
2019-04-06T04:53:01.267Z,44.00
2019-04-06T04:55:30.199Z,42.87
2019-04-06T04:57:58.253Z,44.47
2019-04-06T05:00:26.439Z,41.87
2019-04-06T05:02:54.678Z,42.80
2019-04-06T05:05:22.814Z,38.33
2019-04-06T05:07:50.913Z,40.67
2019-04-06T05:10:19.099Z,37.37
2019-04-06T05:12:47.143Z,39.43
2019-04-06T05:15:18.023Z,40.77
2019-04-06T05:17:46.086Z,39.87
2019-04-06T05:20:14.117Z,39.10
2019-04-06T05:22:42.141Z,38.33
2019-04-06T05:25:10.470Z,38.87
2019-04-06T05:27:38.536Z,35.63
2019-04-06T05:30:07.269Z,37.03
2019-04-06T05:32:35.224Z,36.13
2019-04-06T05:35:03.597Z,35.03
2019-04-06T05:37:31.613Z,33.47
2019-04-06T05:39:59.630Z,34.17
2019-04-06T05:42:27.713Z,34.47
2019-04-06T05:44:55.734Z,35.00
2019-04-06T05:47:24.233Z,32.70
2019-04-06T05:49:52.553Z,32.10
2019-04-06T05:52:21.491Z,34.20
2019-04-06T05:54:49.550Z,32.00
2019-04-06T05:57:17.633Z,33.87
2019-04-06T05:59:47.595Z,33.27
2019-04-06T06:02:15.874Z,34.10
2019-04-06T06:04:44.726Z,33.13
2019-04-06T06:07:16.502Z,34.63
2019-04-06T06:09:44.722Z,31.80
2019-04-06T06:12:14.720Z,29.20
2019-04-06T06:14:43.098Z,30.80
2019-04-06T06:17:11.238Z,28.40
2019-04-06T06:19:39.743Z,27.33
2019-04-06T06:22:08.131Z,26.47
2019-04-06T06:24:38.138Z,27.67
2019-04-06T06:27:06.565Z,28.57
2019-04-06T06:29:34.968Z,26.70
2019-04-06T06:32:03.069Z,25.57
2019-04-06T06:34:31.041Z,26.23
2019-04-06T06:36:59.049Z,27.10
2019-04-06T06:39:27.480Z,26.23
2019-04-06T06:41:55.729Z,25.63
2019-04-06T06:44:23.720Z,25.43
2019-04-06T06:46:51.804Z,24.90
2019-04-06T06:49:19.797Z,24.73
2019-04-06T06:51:48.270Z,26.37
2019-04-06T06:54:16.649Z,25.20
2019-04-06T06:56:44.975Z,25.37
2019-04-06T06:59:13.025Z,26.07
2019-04-06T07:01:41.066Z,25.33
2019-04-06T07:04:09.287Z,25.13
2019-04-06T07:06:37.548Z,25.70
2019-04-06T07:09:06.600Z,25.47
2019-04-06T07:11:34.677Z,24.27
2019-04-06T07:14:02.699Z,27.43
2019-04-06T07:16:30.790Z,26.77
2019-04-06T07:18:58.863Z,25.40
2019-04-06T07:21:27.183Z,26.13
2019-04-06T07:23:56.659Z,24.80
2019-04-06T07:26:24.680Z,26.13
2019-04-06T07:28:56.114Z,25.73
2019-04-06T07:31:30.771Z,26.93
2019-04-06T07:34:02.921Z,25.03
2019-04-06T07:36:30.907Z,25.50
2019-04-06T07:38:58.935Z,25.10
2019-04-06T07:41:27.030Z,24.87
2019-04-06T07:43:55.023Z,26.37
2019-04-06T07:46:23.244Z,25.33
2019-04-06T07:48:51.267Z,25.90
2019-04-06T07:51:19.323Z,25.50
2019-04-06T07:53:47.323Z,24.53
2019-04-06T07:56:15.354Z,25.23
2019-04-06T07:58:49.140Z,24.87
2019-04-06T08:01:13.035Z,26.40
2019-04-06T08:03:41.071Z,25.93
2019-04-06T08:06:09.306Z,25.17
2019-04-06T08:08:37.375Z,25.43
2019-04-06T08:11:05.372Z,25.27
2019-04-06T08:13:33.419Z,25.17
2019-04-06T08:16:01.526Z,26.93
2019-04-06T08:18:29.626Z,26.20
2019-04-06T08:20:57.677Z,24.20
2019-04-06T08:23:25.735Z,24.00
2019-04-06T08:25:54.020Z,23.83
2019-04-06T08:28:22.164Z,24.30
2019-04-06T08:30:50.185Z,24.70
2019-04-06T08:33:18.208Z,23.83
2019-04-06T08:35:46.352Z,24.73
2019-04-06T08:38:14.421Z,25.10
2019-04-06T08:40:42.492Z,24.50
2019-04-06T08:43:10.567Z,24.77
2019-04-06T08:45:38.754Z,25.43
2019-04-06T08:48:06.775Z,25.57
2019-04-06T08:50:34.782Z,23.53
2019-04-06T08:53:02.742Z,24.83
2019-04-06T08:55:30.945Z,24.07
2019-04-06T08:57:59.148Z,25.40
2019-04-06T09:00:27.258Z,24.40
2019-04-06T09:02:55.332Z,24.80
2019-04-06T09:05:23.580Z,22.80
2019-04-06T09:07:52.028Z,23.57
2019-04-06T09:10:20.052Z,24.03
2019-04-06T09:12:48.563Z,24.13
2019-04-06T09:15:17.239Z,24.70
2019-04-06T09:17:45.779Z,23.70
2019-04-06T09:20:14.042Z,23.93
2019-04-06T09:22:42.283Z,26.00
2019-04-06T09:25:10.284Z,23.40
2019-04-06T09:27:38.709Z,24.00
2019-04-06T09:30:07.104Z,22.73
2019-04-06T09:32:35.252Z,24.00
2019-04-06T09:35:03.246Z,23.57
2019-04-06T09:37:31.237Z,23.07
2019-04-06T09:39:59.240Z,23.17
2019-04-06T09:42:27.354Z,22.33
2019-04-06T09:45:14.351Z,25.37
2019-04-06T09:47:51.471Z,22.37
2019-04-06T09:50:38.874Z,21.03
2019-04-06T09:53:28.878Z,23.20
2019-04-06T09:56:25.042Z,23.67
2019-04-06T09:59:17.584Z,24.17
2019-04-06T10:02:01.337Z,22.00
2019-04-06T10:04:45.375Z,23.83
2019-04-06T10:07:29.442Z,22.23
2019-04-06T10:10:06.712Z,22.00
2019-04-06T10:12:51.944Z,22.07
2019-04-06T10:15:42.508Z,21.80
2019-04-06T10:18:29.817Z,22.37
2019-04-06T10:21:31.878Z,21.30
2019-04-06T10:24:17.332Z,21.80
2019-04-06T10:27:04.957Z,22.60
2019-04-06T10:30:09.956Z,21.33
2019-04-06T10:32:44.597Z,21.47
2019-04-06T10:35:34.330Z,20.30
2019-04-06T10:38:33.348Z,20.03
2019-04-06T10:41:24.019Z,19.37
2019-04-06T10:44:11.265Z,19.67
2019-04-06T10:46:58.289Z,18.60
2019-04-06T10:49:48.458Z,22.03
2019-04-06T10:52:35.738Z,18.87
2019-04-06T10:55:22.866Z,18.97
2019-04-06T10:58:12.674Z,18.33
2019-04-06T11:00:58.230Z,20.03
2019-04-06T11:03:34.877Z,20.25
2019-04-06T11:06:10.507Z,21.45
2019-04-06T11:09:03.286Z,19.50
2019-04-06T11:11:54.027Z,21.02
2019-04-06T11:14:32.581Z,19.98
2019-04-06T11:17:18.175Z,18.30
2019-04-06T11:19:56.504Z,20.68
2019-04-06T11:22:32.259Z,20.12
2019-04-06T11:25:15.732Z,20.92
2019-04-06T11:27:52.845Z,17.40
2019-04-06T11:30:37.403Z,18.17
2019-04-06T11:33:26.155Z,19.30
2019-04-06T11:36:02.227Z,18.23
2019-04-06T11:38:49.382Z,17.43
2019-04-06T11:41:36.365Z,18.10
2019-04-06T11:44:23.471Z,18.77
2019-04-06T11:47:15.372Z,17.23
2019-04-06T11:50:17.241Z,17.53
2019-04-06T11:53:02.850Z,16.73
2019-04-06T11:55:38.374Z,15.43
2019-04-06T11:58:12.514Z,15.57
2019-04-06T12:00:52.780Z,13.97
2019-04-06T12:03:26.696Z,16.10
2019-04-06T12:06:20.763Z,17.30
2019-04-06T12:09:06.324Z,18.13
2019-04-06T12:11:41.256Z,17.53
2019-04-06T12:14:29.999Z,17.65
2019-04-06T12:17:17.125Z,17.00
2019-04-06T12:20:02.504Z,17.17
2019-04-06T12:22:52.541Z,17.33
2019-04-06T12:25:32.179Z,17.73
2019-04-06T12:28:25.339Z,16.50
2019-04-06T12:31:07.071Z,18.35
2019-04-06T12:33:54.394Z,17.90
2019-04-06T12:36:27.470Z,17.17
2019-04-06T12:39:14.436Z,17.83
2019-04-06T12:42:01.800Z,17.40
2019-04-06T12:44:47.508Z,17.90
2019-04-06T12:47:35.227Z,17.13
2019-04-06T12:50:21.619Z,17.15
2019-04-06T12:52:58.573Z,17.70
2019-04-06T12:56:00.464Z,18.15
2019-04-06T12:58:44.430Z,17.70
2019-04-06T13:01:34.830Z,16.30
2019-04-06T13:04:21.079Z,17.27
2019-04-06T13:07:06.946Z,16.70
2019-04-06T13:10:09.750Z,16.50
2019-04-06T13:12:50.752Z,17.02
2019-04-06T13:15:38.209Z,16.73
2019-04-06T13:18:15.103Z,16.67
2019-04-06T13:21:11.316Z,15.60
2019-04-06T13:24:13.497Z,16.42
2019-04-06T13:27:03.126Z,15.80
2019-04-06T13:29:50.246Z,15.67
2019-04-06T13:32:36.898Z,17.62
2019-04-06T13:35:11.306Z,19.43
2019-04-06T13:37:56.774Z,17.85
2019-04-06T13:40:55.635Z,16.95
2019-04-06T13:43:45.657Z,16.80
2019-04-06T13:46:33.222Z,16.97
2019-04-06T13:49:23.161Z,17.02
2019-04-06T13:52:08.734Z,15.47
2019-04-06T13:54:54.280Z,15.78
2019-04-06T13:57:47.258Z,14.73
2019-04-06T14:00:26.734Z,14.03
2019-04-06T14:03:01.640Z,14.43
2019-04-06T14:05:44.971Z,14.47
2019-04-06T14:08:21.795Z,14.78
2019-04-06T14:11:09.137Z,12.80
2019-04-06T14:13:56.665Z,13.62
2019-04-06T14:16:44.807Z,13.58
2019-04-06T14:19:28.487Z,13.87
2019-04-06T14:22:13.871Z,12.90
2019-04-06T14:25:03.744Z,13.20
2019-04-06T14:27:42.489Z,13.40
2019-04-06T14:30:29.954Z,12.97
2019-04-06T14:33:25.847Z,13.62
2019-04-06T14:36:21.879Z,12.87
2019-04-06T14:39:20.807Z,14.13
2019-04-06T14:42:08.484Z,14.60
2019-04-06T14:44:53.829Z,13.50
2019-04-06T14:47:40.882Z,14.70
2019-04-06T14:50:28.755Z,14.00
2019-04-06T14:53:25.033Z,13.55
2019-04-06T14:56:01.850Z,13.57
2019-04-06T14:58:51.807Z,12.63
2019-04-06T15:01:45.445Z,12.15
2019-04-06T15:04:18.198Z,12.35
2019-04-06T15:07:11.945Z,13.15
2019-04-06T15:10:00.096Z,11.03
2019-04-06T15:12:53.752Z,12.45
2019-04-06T15:15:46.656Z,11.90
2019-04-06T15:18:28.734Z,13.53
2019-04-06T15:21:30.976Z,12.30
2019-04-06T15:24:12.631Z,13.60
2019-04-06T15:27:02.385Z,13.28
2019-04-06T15:29:41.994Z,13.35
2019-04-06T15:32:43.981Z,13.80
2019-04-06T15:35:29.747Z,13.10
2019-04-06T15:38:05.886Z,14.00
2019-04-06T15:41:11.123Z,15.00
2019-04-06T15:43:58.243Z,14.47
2019-04-06T15:46:36.995Z,14.10
2019-04-06T15:49:33.060Z,13.75
2019-04-06T15:52:37.940Z,13.93
2019-04-06T15:55:18.378Z,13.70
2019-04-06T15:58:05.420Z,13.50
2019-04-06T16:00:48.856Z,13.70
2019-04-06T16:03:34.469Z,13.35
2019-04-06T16:06:08.512Z,13.83
2019-04-06T16:08:53.001Z,13.32
2019-04-06T16:11:38.857Z,13.95
2019-04-06T16:14:31.972Z,13.70
2019-04-06T16:17:06.325Z,12.82
2019-04-06T16:19:55.656Z,12.33
2019-04-06T16:22:39.706Z,13.00
2019-04-06T16:25:27.177Z,12.65
2019-04-06T16:28:16.750Z,13.00
2019-04-06T16:31:03.676Z,12.37
2019-04-06T16:33:51.073Z,14.05
2019-04-06T16:36:38.422Z,13.43
2019-04-06T16:39:37.666Z,13.33
2019-04-06T16:42:23.354Z,12.33
2019-04-06T16:45:13.007Z,13.05
2019-04-06T16:47:49.850Z,12.63
2019-04-06T16:50:36.194Z,12.88
2019-04-06T16:53:23.287Z,11.97
2019-04-06T16:56:15.816Z,12.47
2019-04-06T16:58:53.931Z,11.40
2019-04-06T17:01:30.246Z,12.77
2019-04-06T17:04:15.745Z,12.03
2019-04-06T17:07:07.291Z,12.30
2019-04-06T17:09:51.449Z,13.07
2019-04-06T17:12:35.411Z,13.22
2019-04-06T17:15:28.136Z,13.00
2019-04-06T17:18:06.877Z,13.07
2019-04-06T17:20:52.494Z,12.33
2019-04-06T17:23:42.456Z,13.67
2019-04-06T17:26:33.197Z,12.77
2019-04-06T17:29:17.328Z,13.60
2019-04-06T17:32:03.028Z,12.87
2019-04-06T17:34:55.396Z,12.37
2019-04-06T17:37:47.508Z,13.63
2019-04-06T17:40:40.594Z,13.90
2019-04-06T17:43:21.378Z,13.23
2019-04-06T17:46:17.569Z,13.30
2019-04-06T17:49:07.747Z,14.90
2019-04-06T17:51:47.570Z,13.10
2019-04-06T17:54:33.514Z,13.03
2019-04-06T17:57:16.430Z,14.40
2019-04-06T18:00:06.451Z,13.90
2019-04-06T18:02:56.558Z,14.27
2019-04-06T18:05:43.762Z,13.03
2019-04-06T18:08:21.230Z,13.93
2019-04-06T18:11:05.193Z,13.37
2019-04-06T18:13:47.328Z,13.00
2019-04-06T18:16:15.548Z,13.33
2019-04-06T18:18:44.110Z,14.90
2019-04-06T18:21:12.305Z,13.03
2019-04-06T18:23:42.545Z,14.10
2019-04-06T18:26:10.731Z,13.40
2019-04-06T18:28:38.977Z,14.57
2019-04-06T18:31:19.211Z,13.67
2019-04-06T18:33:48.085Z,14.47
2019-04-06T18:36:16.270Z,14.30
2019-04-06T18:38:48.328Z,13.30
2019-04-06T18:41:17.409Z,16.37
2019-04-06T18:43:46.439Z,14.93
2019-04-06T18:46:15.915Z,14.77
2019-04-06T18:48:44.816Z,15.40
2019-04-06T18:51:13.685Z,15.43
2019-04-06T18:53:42.606Z,17.10
2019-04-06T18:56:11.854Z,15.67
2019-04-06T18:58:43.108Z,15.13
2019-04-06T19:01:11.599Z,15.40
2019-04-06T19:03:41.302Z,14.50
2019-04-06T19:06:09.959Z,15.63
2019-04-06T19:08:39.180Z,16.17
2019-04-06T19:11:08.114Z,15.17
2019-04-06T19:13:37.618Z,15.20
2019-04-06T19:16:06.519Z,14.97
2019-04-06T19:18:35.315Z,16.07
2019-04-06T19:21:03.313Z,14.67
2019-04-06T19:23:31.341Z,16.10
2019-04-06T19:25:59.362Z,15.17
2019-04-06T19:28:30.073Z,15.57
2019-04-06T19:30:58.108Z,15.90
2019-04-06T19:33:27.256Z,15.77
2019-04-06T19:35:56.362Z,15.70
2019-04-06T19:38:24.620Z,15.80
2019-04-06T19:40:53.015Z,15.43
2019-04-06T19:43:21.060Z,14.80
2019-04-06T19:45:49.050Z,17.80
2019-04-06T19:48:17.102Z,17.57
2019-04-06T19:50:45.164Z,16.70
2019-04-06T19:53:13.523Z,18.47
2019-04-06T19:55:41.568Z,16.67
2019-04-06T19:58:09.580Z,15.43
2019-04-06T20:00:37.592Z,15.75
2019-04-06T20:03:05.636Z,15.80
2019-04-06T20:05:35.638Z,14.73
2019-04-06T20:08:03.651Z,14.67
2019-04-06T20:10:31.714Z,15.70
2019-04-06T20:13:00.228Z,14.77
2019-04-06T20:15:28.746Z,15.43
2019-04-06T20:17:56.740Z,15.17
2019-04-06T20:20:24.730Z,14.97
2019-04-06T20:22:52.792Z,14.77
2019-04-06T20:25:20.855Z,13.93
2019-04-06T20:27:48.942Z,17.00
2019-04-06T20:30:17.160Z,14.57
2019-04-06T20:32:45.844Z,14.70
2019-04-06T20:35:13.872Z,14.50
2019-04-06T20:37:42.280Z,14.53
2019-04-06T20:40:10.342Z,14.67
2019-04-06T20:42:38.437Z,14.90
2019-04-06T20:45:06.542Z,14.93
2019-04-06T20:47:34.682Z,14.97
2019-04-06T20:50:02.812Z,14.80
2019-04-06T20:52:30.842Z,15.53
2019-04-06T20:54:59.039Z,15.27
2019-04-06T20:57:27.239Z,13.37
2019-04-06T20:59:55.276Z,14.27
2019-04-06T21:02:23.405Z,14.60
2019-04-06T21:04:51.425Z,14.70
2019-04-06T21:07:19.511Z,14.63
2019-04-06T21:09:47.676Z,13.83
2019-04-06T21:12:15.986Z,15.70
2019-04-06T21:14:45.495Z,13.70
2019-04-06T21:17:13.603Z,15.50
2019-04-06T21:19:41.733Z,15.53
2019-04-06T21:22:10.671Z,14.83
2019-04-06T21:24:39.359Z,14.93
2019-04-06T21:27:07.669Z,14.17
2019-04-06T21:29:35.741Z,14.07
2019-04-06T21:32:03.773Z,15.43
2019-04-06T21:34:31.811Z,14.67
2019-04-06T21:36:59.818Z,14.47
2019-04-06T21:39:27.940Z,13.83
2019-04-06T21:41:56.506Z,13.87
2019-04-06T21:44:24.563Z,13.10
2019-04-06T21:46:52.634Z,13.83
2019-04-06T21:49:21.155Z,15.40
2019-04-06T21:51:49.651Z,13.63
2019-04-06T21:54:17.661Z,14.73
2019-04-06T21:56:45.694Z,14.20
2019-04-06T21:59:15.389Z,14.30
2019-04-06T22:01:43.465Z,14.53
2019-04-06T22:04:23.091Z,14.83
2019-04-06T22:06:41.370Z,14.20
2019-04-06T22:09:13.810Z,14.93
2019-04-06T22:11:42.719Z,13.80
2019-04-06T22:14:12.465Z,14.80
2019-04-06T22:16:41.804Z,14.83
2019-04-06T22:19:11.140Z,14.63
2019-04-06T22:21:40.953Z,14.73
2019-04-06T22:24:09.622Z,14.57
2019-04-06T22:26:39.375Z,14.63
2019-04-06T22:29:09.171Z,14.63
2019-04-06T22:31:38.056Z,14.57
2019-04-06T22:34:07.027Z,14.07
2019-04-06T22:36:36.827Z,14.77
2019-04-06T22:39:09.038Z,15.20
2019-04-06T22:41:37.966Z,15.20
2019-04-06T22:44:07.319Z,14.77
2019-04-06T22:46:35.563Z,15.23
2019-04-06T22:49:04.421Z,15.30
2019-04-06T22:51:32.829Z,13.97
2019-04-06T22:54:01.426Z,14.30
2019-04-06T22:56:29.641Z,14.37
2019-04-06T22:58:58.266Z,15.13
2019-04-06T23:01:28.068Z,14.50
2019-04-06T23:04:45.320Z,15.20
2019-04-06T23:07:09.867Z,14.70
2019-04-06T23:09:39.254Z,14.00
2019-04-06T23:12:08.608Z,15.00
2019-04-06T23:14:36.817Z,14.90
2019-04-06T23:17:05.355Z,15.27
2019-04-06T23:19:33.822Z,16.10
2019-04-06T23:22:02.176Z,14.37
2019-04-06T23:24:31.736Z,14.83
2019-04-06T23:26:59.881Z,14.23
2019-04-06T23:29:28.023Z,14.73
2019-04-06T23:31:56.835Z,13.77
2019-04-06T23:34:24.915Z,15.27
2019-04-06T23:36:52.917Z,15.23
2019-04-06T23:39:20.922Z,14.83
2019-04-06T23:41:49.468Z,15.93
2019-04-06T23:44:18.383Z,15.17
2019-04-06T23:46:46.784Z,16.27
2019-04-06T23:49:14.851Z,15.97
2019-04-06T23:51:42.859Z,15.27
2019-04-06T23:54:10.853Z,14.73
2019-04-06T23:56:38.866Z,15.67
2019-04-06T23:59:06.823Z,15.13
